sensor_id;sensor_type;location;lat;lon;timestamp;P1;durP1;ratioP1;P2;durP2;ratioP2
15022;SDS011;19850;49.576;10.880;2022-12-18T00:02:35;80.30;;;38.20;;
15022;SDS011;19850;49.576;10.880;2022-12-18T00:06:38;72.90;;;47.88;;
15022;SDS011;19850;49.576;10.880;2022-12-18T00:10:43;70.50;;;39.40;;
15022;SDS011;19850;49.576;10.880;2022-12-18T00:14:46;68.80;;;38.83;;
15022;SDS011;19850;49.576;10.880;2022-12-18T00:18:49;67.13;;;37.20;;
15022;SDS011;19850;49.576;10.880;2022-12-18T00:22:53;67.10;;;38.80;;
15022;SDS011;19850;49.576;10.880;2022-12-18T00:26:57;70.33;;;39.57;;
15022;SDS011;19850;49.576;10.880;2022-12-18T00:31:01;68.60;;;38.87;;
15022;SDS011;19850;49.576;10.880;2022-12-18T00:35:04;74.00;;;38.37;;
15022;SDS011;19850;49.576;10.880;2022-12-18T00:39:09;73.55;;;45.03;;
15022;SDS011;19850;49.576;10.880;2022-12-18T00:43:14;74.50;;;47.80;;
15022;SDS011;19850;49.576;10.880;2022-12-18T00:47:17;76.40;;;43.17;;
15022;SDS011;19850;49.576;10.880;2022-12-18T00:51:19;73.40;;;40.83;;
15022;SDS011;19850;49.576;10.880;2022-12-18T00:55:22;75.90;;;41.40;;
15022;SDS011;19850;49.576;10.880;2022-12-18T00:59:26;77.47;;;40.90;;
15022;SDS011;19850;49.576;10.880;2022-12-18T01:03:29;80.20;;;41.23;;
15022;SDS011;19850;49.576;10.880;2022-12-18T01:07:32;80.87;;;40.40;;
15022;SDS011;19850;49.576;10.880;2022-12-18T01:11:35;87.70;;;41.90;;
15022;SDS011;19850;49.576;10.880;2022-12-18T01:15:39;85.57;;;42.40;;
15022;SDS011;19850;49.576;10.880;2022-12-18T01:19:42;81.47;;;40.23;;
15022;SDS011;19850;49.576;10.880;2022-12-18T01:23:44;81.17;;;38.67;;
15022;SDS011;19850;49.576;10.880;2022-12-18T01:27:47;77.13;;;39.27;;
15022;SDS011;19850;49.576;10.880;2022-12-18T01:31:54;74.85;;;47.75;;
15022;SDS011;19850;49.576;10.880;2022-12-18T01:35:57;77.13;;;41.30;;
15022;SDS011;19850;49.576;10.880;2022-12-18T01:39:59;73.87;;;39.93;;
15022;SDS011;19850;49.576;10.880;2022-12-18T01:48:39;66.47;;;36.47;;
15022;SDS011;19850;49.576;10.880;2022-12-18T01:52:45;68.70;;;36.80;;
15022;SDS011;19850;49.576;10.880;2022-12-18T01:56:49;67.00;;;36.03;;
15022;SDS011;19850;49.576;10.880;2022-12-18T02:00:52;64.40;;;35.77;;
15022;SDS011;19850;49.576;10.880;2022-12-18T02:04:58;70.17;;;36.37;;
15022;SDS011;19850;49.576;10.880;2022-12-18T02:09:03;60.23;;;34.73;;
15022;SDS011;19850;49.576;10.880;2022-12-18T02:13:12;62.30;;;33.17;;
15022;SDS011;19850;49.576;10.880;2022-12-18T02:17:19;64.33;;;35.13;;
15022;SDS011;19850;49.576;10.880;2022-12-18T02:21:27;64.37;;;35.57;;
15022;SDS011;19850;49.576;10.880;2022-12-18T02:29:56;69.57;;;43.80;;
15022;SDS011;19850;49.576;10.880;2022-12-18T02:34:02;69.57;;;38.00;;
15022;SDS011;19850;49.576;10.880;2022-12-18T02:38:06;70.33;;;37.83;;
15022;SDS011;19850;49.576;10.880;2022-12-18T02:42:10;69.53;;;37.73;;
15022;SDS011;19850;49.576;10.880;2022-12-18T02:46:25;64.93;;;35.43;;
15022;SDS011;19850;49.576;10.880;2022-12-18T02:50:34;59.87;;;33.70;;
15022;SDS011;19850;49.576;10.880;2022-12-18T02:54:41;56.10;;;30.87;;
15022;SDS011;19850;49.576;10.880;2022-12-18T02:58:55;54.90;;;31.17;;
15022;SDS011;19850;49.576;10.880;2022-12-18T03:03:02;54.83;;;37.50;;
15022;SDS011;19850;49.576;10.880;2022-12-18T03:07:08;54.43;;;30.77;;
15022;SDS011;19850;49.576;10.880;2022-12-18T03:11:13;48.17;;;28.57;;
15022;SDS011;19850;49.576;10.880;2022-12-18T03:15:18;51.70;;;28.00;;
15022;SDS011;19850;49.576;10.880;2022-12-18T03:19:24;55.60;;;28.53;;
15022;SDS011;19850;49.576;10.880;2022-12-18T03:23:29;66.63;;;29.63;;
15022;SDS011;19850;49.576;10.880;2022-12-18T03:27:35;68.57;;;29.13;;
15022;SDS011;19850;49.576;10.880;2022-12-18T03:31:41;60.50;;;30.17;;
15022;SDS011;19850;49.576;10.880;2022-12-18T03:35:47;64.10;;;28.70;;
15022;SDS011;19850;49.576;10.880;2022-12-18T03:39:50;63.67;;;29.67;;
15022;SDS011;19850;49.576;10.880;2022-12-18T03:43:54;62.60;;;31.20;;
15022;SDS011;19850;49.576;10.880;2022-12-18T03:48:01;65.37;;;29.80;;
15022;SDS011;19850;49.576;10.880;2022-12-18T03:52:07;64.37;;;29.40;;
15022;SDS011;19850;49.576;10.880;2022-12-18T03:56:11;69.83;;;31.70;;
15022;SDS011;19850;49.576;10.880;2022-12-18T04:00:17;63.97;;;30.27;;
15022;SDS011;19850;49.576;10.880;2022-12-18T04:04:23;70.60;;;32.57;;
15022;SDS011;19850;49.576;10.880;2022-12-18T04:08:27;62.07;;;31.10;;
15022;SDS011;19850;49.576;10.880;2022-12-18T04:12:30;69.93;;;32.23;;
15022;SDS011;19850;49.576;10.880;2022-12-18T04:16:33;67.07;;;30.50;;
15022;SDS011;19850;49.576;10.880;2022-12-18T04:20:37;61.97;;;28.77;;
15022;SDS011;19850;49.576;10.880;2022-12-18T04:24:40;62.77;;;30.10;;
15022;SDS011;19850;49.576;10.880;2022-12-18T04:28:43;56.53;;;28.93;;
15022;SDS011;19850;49.576;10.880;2022-12-18T04:32:45;61.07;;;29.50;;
15022;SDS011;19850;49.576;10.880;2022-12-18T04:36:54;55.67;;;27.50;;
15022;SDS011;19850;49.576;10.880;2022-12-18T04:40:57;50.33;;;25.10;;
15022;SDS011;19850;49.576;10.880;2022-12-18T04:45:00;45.03;;;23.67;;
15022;SDS011;19850;49.576;10.880;2022-12-18T04:49:03;42.70;;;22.87;;
15022;SDS011;19850;49.576;10.880;2022-12-18T04:53:07;39.93;;;22.33;;
15022;SDS011;19850;49.576;10.880;2022-12-18T04:57:10;41.27;;;22.07;;
15022;SDS011;19850;49.576;10.880;2022-12-18T05:01:13;40.60;;;22.40;;
15022;SDS011;19850;49.576;10.880;2022-12-18T05:05:18;37.50;;;20.67;;
15022;SDS011;19850;49.576;10.880;2022-12-18T05:09:22;37.03;;;20.70;;
15022;SDS011;19850;49.576;10.880;2022-12-18T05:13:25;36.73;;;21.30;;
15022;SDS011;19850;49.576;10.880;2022-12-18T05:17:28;36.43;;;20.63;;
15022;SDS011;19850;49.576;10.880;2022-12-18T05:21:31;36.00;;;20.37;;
15022;SDS011;19850;49.576;10.880;2022-12-18T05:25:35;33.93;;;19.77;;
15022;SDS011;19850;49.576;10.880;2022-12-18T05:29:38;37.07;;;20.83;;
15022;SDS011;19850;49.576;10.880;2022-12-18T05:33:41;38.87;;;21.47;;
15022;SDS011;19850;49.576;10.880;2022-12-18T05:37:44;40.30;;;21.20;;
15022;SDS011;19850;49.576;10.880;2022-12-18T05:41:49;36.47;;;20.20;;
15022;SDS011;19850;49.576;10.880;2022-12-18T05:45:51;33.50;;;19.20;;
15022;SDS011;19850;49.576;10.880;2022-12-18T05:49:54;34.83;;;19.77;;
15022;SDS011;19850;49.576;10.880;2022-12-18T05:53:57;36.60;;;20.23;;
15022;SDS011;19850;49.576;10.880;2022-12-18T05:58:01;36.93;;;19.63;;
15022;SDS011;19850;49.576;10.880;2022-12-18T06:02:04;36.50;;;19.90;;
15022;SDS011;19850;49.576;10.880;2022-12-18T06:06:14;36.17;;;19.73;;
15022;SDS011;19850;49.576;10.880;2022-12-18T06:10:17;34.60;;;20.10;;
15022;SDS011;19850;49.576;10.880;2022-12-18T06:14:21;38.13;;;19.87;;
15022;SDS011;19850;49.576;10.880;2022-12-18T06:18:24;38.07;;;20.87;;
15022;SDS011;19850;49.576;10.880;2022-12-18T06:22:27;38.10;;;20.10;;
15022;SDS011;19850;49.576;10.880;2022-12-18T06:26:30;36.03;;;19.80;;
15022;SDS011;19850;49.576;10.880;2022-12-18T06:30:34;37.90;;;20.73;;
15022;SDS011;19850;49.576;10.880;2022-12-18T06:34:37;36.50;;;20.70;;
15022;SDS011;19850;49.576;10.880;2022-12-18T06:38:41;36.90;;;20.03;;
15022;SDS011;19850;49.576;10.880;2022-12-18T06:42:44;37.47;;;20.27;;
15022;SDS011;19850;49.576;10.880;2022-12-18T06:46:49;35.03;;;19.53;;
15022;SDS011;19850;49.576;10.880;2022-12-18T06:50:53;35.10;;;19.87;;
15022;SDS011;19850;49.576;10.880;2022-12-18T06:54:55;33.97;;;19.27;;
15022;SDS011;19850;49.576;10.880;2022-12-18T06:58:58;37.63;;;20.73;;
15022;SDS011;19850;49.576;10.880;2022-12-18T07:03:02;34.93;;;19.30;;
15022;SDS011;19850;49.576;10.880;2022-12-18T07:07:05;37.77;;;21.13;;
15022;SDS011;19850;49.576;10.880;2022-12-18T07:11:08;34.90;;;19.73;;
15022;SDS011;19850;49.576;10.880;2022-12-18T07:15:11;33.10;;;19.30;;
15022;SDS011;19850;49.576;10.880;2022-12-18T07:19:15;34.10;;;19.93;;
15022;SDS011;19850;49.576;10.880;2022-12-18T07:23:17;33.10;;;19.07;;
15022;SDS011;19850;49.576;10.880;2022-12-18T07:27:21;34.90;;;20.10;;
15022;SDS011;19850;49.576;10.880;2022-12-18T07:31:24;37.47;;;20.57;;
15022;SDS011;19850;49.576;10.880;2022-12-18T07:35:29;34.23;;;19.93;;
15022;SDS011;19850;49.576;10.880;2022-12-18T07:39:32;35.47;;;20.20;;
15022;SDS011;19850;49.576;10.880;2022-12-18T07:43:35;42.67;;;21.27;;
15022;SDS011;19850;49.576;10.880;2022-12-18T07:47:39;37.47;;;20.87;;
15022;SDS011;19850;49.576;10.880;2022-12-18T07:51:44;37.50;;;20.07;;
15022;SDS011;19850;49.576;10.880;2022-12-18T07:55:54;36.93;;;20.93;;
15022;SDS011;19850;49.576;10.880;2022-12-18T08:00:17;39.13;;;21.27;;
15022;SDS011;19850;49.576;10.880;2022-12-18T08:04:21;41.80;;;21.93;;
15022;SDS011;19850;49.576;10.880;2022-12-18T08:08:25;39.33;;;22.87;;
15022;SDS011;19850;49.576;10.880;2022-12-18T08:12:28;42.23;;;24.73;;
15022;SDS011;19850;49.576;10.880;2022-12-18T08:16:31;39.20;;;21.70;;
15022;SDS011;19850;49.576;10.880;2022-12-18T08:20:33;38.83;;;21.27;;
15022;SDS011;19850;49.576;10.880;2022-12-18T08:24:38;42.33;;;23.57;;
15022;SDS011;19850;49.576;10.880;2022-12-18T08:28:40;45.03;;;24.93;;
15022;SDS011;19850;49.576;10.880;2022-12-18T08:32:43;41.27;;;23.23;;
15022;SDS011;19850;49.576;10.880;2022-12-18T08:36:46;37.90;;;22.63;;
15022;SDS011;19850;49.576;10.880;2022-12-18T08:40:53;37.77;;;21.40;;
15022;SDS011;19850;49.576;10.880;2022-12-18T08:45:00;43.17;;;22.20;;
15022;SDS011;19850;49.576;10.880;2022-12-18T08:49:03;40.80;;;22.53;;
15022;SDS011;19850;49.576;10.880;2022-12-18T08:53:06;46.97;;;25.40;;
15022;SDS011;19850;49.576;10.880;2022-12-18T08:57:11;35.43;;;21.00;;
15022;SDS011;19850;49.576;10.880;2022-12-18T09:01:13;36.67;;;21.63;;
15022;SDS011;19850;49.576;10.880;2022-12-18T09:05:16;41.43;;;23.33;;
15022;SDS011;19850;49.576;10.880;2022-12-18T09:09:19;44.90;;;26.27;;
15022;SDS011;19850;49.576;10.880;2022-12-18T09:13:23;40.60;;;23.47;;
15022;SDS011;19850;49.576;10.880;2022-12-18T09:17:26;39.30;;;22.17;;
15022;SDS011;19850;49.576;10.880;2022-12-18T09:21:30;39.47;;;21.83;;
15022;SDS011;19850;49.576;10.880;2022-12-18T09:25:37;38.27;;;20.90;;
15022;SDS011;19850;49.576;10.880;2022-12-18T09:29:41;38.47;;;21.80;;
15022;SDS011;19850;49.576;10.880;2022-12-18T09:33:44;37.50;;;22.00;;
15022;SDS011;19850;49.576;10.880;2022-12-18T09:37:47;35.43;;;21.73;;
15022;SDS011;19850;49.576;10.880;2022-12-18T09:41:51;39.97;;;24.23;;
15022;SDS011;19850;49.576;10.880;2022-12-18T09:45:58;36.30;;;21.23;;
15022;SDS011;19850;49.576;10.880;2022-12-18T09:50:05;33.57;;;19.97;;
15022;SDS011;19850;49.576;10.880;2022-12-18T09:54:18;33.57;;;20.63;;
15022;SDS011;19850;49.576;10.880;2022-12-18T09:58:25;33.70;;;20.37;;
15022;SDS011;19850;49.576;10.880;2022-12-18T10:02:31;37.67;;;21.17;;
15022;SDS011;19850;49.576;10.880;2022-12-18T10:06:35;39.17;;;22.17;;
15022;SDS011;19850;49.576;10.880;2022-12-18T10:10:42;34.53;;;20.63;;
15022;SDS011;19850;49.576;10.880;2022-12-18T10:14:50;37.23;;;21.70;;
15022;SDS011;19850;49.576;10.880;2022-12-18T10:19:00;33.43;;;20.17;;
15022;SDS011;19850;49.576;10.880;2022-12-18T10:23:09;33.80;;;19.97;;
15022;SDS011;19850;49.576;10.880;2022-12-18T10:27:26;32.63;;;18.93;;
15022;SDS011;19850;49.576;10.880;2022-12-18T10:31:30;32.27;;;19.23;;
15022;SDS011;19850;49.576;10.880;2022-12-18T10:35:34;33.07;;;19.77;;
15022;SDS011;19850;49.576;10.880;2022-12-18T10:39:38;30.97;;;19.30;;
15022;SDS011;19850;49.576;10.880;2022-12-18T10:43:41;30.03;;;18.43;;
15022;SDS011;19850;49.576;10.880;2022-12-18T10:47:44;30.03;;;18.33;;
15022;SDS011;19850;49.576;10.880;2022-12-18T10:51:51;29.17;;;17.87;;
15022;SDS011;19850;49.576;10.880;2022-12-18T10:55:55;32.07;;;19.43;;
15022;SDS011;19850;49.576;10.880;2022-12-18T11:00:00;31.03;;;19.43;;
15022;SDS011;19850;49.576;10.880;2022-12-18T11:04:21;32.07;;;20.83;;
15022;SDS011;19850;49.576;10.880;2022-12-18T11:08:27;29.23;;;19.50;;
15022;SDS011;19850;49.576;10.880;2022-12-18T11:12:30;28.73;;;18.67;;
15022;SDS011;19850;49.576;10.880;2022-12-18T11:16:33;28.93;;;18.47;;
15022;SDS011;19850;49.576;10.880;2022-12-18T11:20:37;31.83;;;18.70;;
15022;SDS011;19850;49.576;10.880;2022-12-18T11:24:43;31.53;;;19.80;;
15022;SDS011;19850;49.576;10.880;2022-12-18T11:29:16;30.80;;;20.00;;
15022;SDS011;19850;49.576;10.880;2022-12-18T11:33:21;32.50;;;20.27;;
15022;SDS011;19850;49.576;10.880;2022-12-18T11:37:24;34.27;;;19.93;;
15022;SDS011;19850;49.576;10.880;2022-12-18T11:41:29;32.37;;;19.67;;
15022;SDS011;19850;49.576;10.880;2022-12-18T11:45:53;25.67;;;16.93;;
15022;SDS011;19850;49.576;10.880;2022-12-18T11:49:59;31.57;;;18.93;;
15022;SDS011;19850;49.576;10.880;2022-12-18T11:54:07;28.07;;;17.97;;
15022;SDS011;19850;49.576;10.880;2022-12-18T11:58:17;29.40;;;17.63;;
15022;SDS011;19850;49.576;10.880;2022-12-18T12:02:39;28.77;;;18.87;;
15022;SDS011;19850;49.576;10.880;2022-12-18T12:06:50;27.90;;;17.93;;
15022;SDS011;19850;49.576;10.880;2022-12-18T12:11:05;43.90;;;22.23;;
15022;SDS011;19850;49.576;10.880;2022-12-18T12:15:17;31.03;;;19.33;;
15022;SDS011;19850;49.576;10.880;2022-12-18T12:19:29;32.87;;;19.03;;
15022;SDS011;19850;49.576;10.880;2022-12-18T12:23:40;32.40;;;20.40;;
15022;SDS011;19850;49.576;10.880;2022-12-18T12:27:47;43.23;;;26.03;;
15022;SDS011;19850;49.576;10.880;2022-12-18T12:31:58;30.70;;;19.43;;
15022;SDS011;19850;49.576;10.880;2022-12-18T12:36:08;38.87;;;24.03;;
15022;SDS011;19850;49.576;10.880;2022-12-18T12:40:17;28.90;;;17.87;;
15022;SDS011;19850;49.576;10.880;2022-12-18T12:44:43;29.67;;;18.53;;
15022;SDS011;19850;49.576;10.880;2022-12-18T12:48:58;30.00;;;17.43;;
15022;SDS011;19850;49.576;10.880;2022-12-18T12:53:05;27.90;;;18.03;;
15022;SDS011;19850;49.576;10.880;2022-12-18T12:57:11;30.77;;;22.63;;
15022;SDS011;19850;49.576;10.880;2022-12-18T13:01:22;28.50;;;18.50;;
15022;SDS011;19850;49.576;10.880;2022-12-18T13:05:31;27.67;;;17.07;;
15022;SDS011;19850;49.576;10.880;2022-12-18T13:10:10;28.43;;;17.47;;
15022;SDS011;19850;49.576;10.880;2022-12-18T13:14:28;30.30;;;16.97;;
15022;SDS011;19850;49.576;10.880;2022-12-18T13:18:32;26.00;;;16.47;;
15022;SDS011;19850;49.576;10.880;2022-12-18T13:22:37;26.40;;;16.50;;
15022;SDS011;19850;49.576;10.880;2022-12-18T13:26:40;26.93;;;16.90;;
15022;SDS011;19850;49.576;10.880;2022-12-18T13:30:48;29.23;;;16.43;;
15022;SDS011;19850;49.576;10.880;2022-12-18T13:39:39;27.93;;;17.40;;
15022;SDS011;19850;49.576;10.880;2022-12-18T13:43:43;28.60;;;17.60;;
15022;SDS011;19850;49.576;10.880;2022-12-18T13:47:46;32.70;;;19.50;;
15022;SDS011;19850;49.576;10.880;2022-12-18T13:51:50;37.80;;;22.73;;
15022;SDS011;19850;49.576;10.880;2022-12-18T13:55:56;46.73;;;24.67;;
15022;SDS011;19850;49.576;10.880;2022-12-18T14:00:14;68.17;;;29.53;;
15022;SDS011;19850;49.576;10.880;2022-12-18T14:04:26;42.47;;;26.37;;
15022;SDS011;19850;49.576;10.880;2022-12-18T14:08:35;35.67;;;20.43;;
15022;SDS011;19850;49.576;10.880;2022-12-18T14:12:44;51.07;;;26.57;;
15022;SDS011;19850;49.576;10.880;2022-12-18T14:17:03;30.73;;;23.20;;
15022;SDS011;19850;49.576;10.880;2022-12-18T14:21:17;30.43;;;20.10;;
15022;SDS011;19850;49.576;10.880;2022-12-18T14:25:22;32.87;;;19.17;;
15022;SDS011;19850;49.576;10.880;2022-12-18T14:29:27;30.10;;;19.07;;
15022;SDS011;19850;49.576;10.880;2022-12-18T14:33:31;27.57;;;17.73;;
15022;SDS011;19850;49.576;10.880;2022-12-18T14:37:34;28.00;;;16.77;;
15022;SDS011;19850;49.576;10.880;2022-12-18T14:41:37;30.80;;;18.57;;
15022;SDS011;19850;49.576;10.880;2022-12-18T14:45:41;32.13;;;18.40;;
15022;SDS011;19850;49.576;10.880;2022-12-18T14:49:46;30.17;;;18.43;;
15022;SDS011;19850;49.576;10.880;2022-12-18T14:53:51;29.70;;;17.80;;
15022;SDS011;19850;49.576;10.880;2022-12-18T14:57:57;30.00;;;18.73;;
15022;SDS011;19850;49.576;10.880;2022-12-18T15:02:02;33.80;;;20.93;;
15022;SDS011;19850;49.576;10.880;2022-12-18T15:06:16;36.70;;;21.57;;
15022;SDS011;19850;49.576;10.880;2022-12-18T15:10:22;30.83;;;18.93;;
15022;SDS011;19850;49.576;10.880;2022-12-18T15:14:34;38.33;;;22.17;;
15022;SDS011;19850;49.576;10.880;2022-12-18T15:18:42;42.83;;;23.70;;
15022;SDS011;19850;49.576;10.880;2022-12-18T15:22:49;34.17;;;19.70;;
15022;SDS011;19850;49.576;10.880;2022-12-18T15:26:51;28.87;;;18.30;;
15022;SDS011;19850;49.576;10.880;2022-12-18T15:31:02;31.53;;;19.80;;
15022;SDS011;19850;49.576;10.880;2022-12-18T15:35:11;28.57;;;18.27;;
15022;SDS011;19850;49.576;10.880;2022-12-18T15:39:17;30.87;;;18.40;;
15022;SDS011;19850;49.576;10.880;2022-12-18T15:43:20;32.87;;;20.47;;
15022;SDS011;19850;49.576;10.880;2022-12-18T15:47:39;30.90;;;18.80;;
15022;SDS011;19850;49.576;10.880;2022-12-18T15:51:46;29.50;;;19.20;;
15022;SDS011;19850;49.576;10.880;2022-12-18T15:55:54;33.73;;;21.00;;
15022;SDS011;19850;49.576;10.880;2022-12-18T16:00:14;30.90;;;20.10;;
15022;SDS011;19850;49.576;10.880;2022-12-18T16:04:18;29.40;;;20.13;;
15022;SDS011;19850;49.576;10.880;2022-12-18T16:08:23;31.13;;;20.60;;
15022;SDS011;19850;49.576;10.880;2022-12-18T16:12:26;32.33;;;20.60;;
15022;SDS011;19850;49.576;10.880;2022-12-18T16:16:29;31.57;;;20.33;;
15022;SDS011;19850;49.576;10.880;2022-12-18T16:20:32;35.10;;;21.63;;
15022;SDS011;19850;49.576;10.880;2022-12-18T16:24:37;37.60;;;22.10;;
15022;SDS011;19850;49.576;10.880;2022-12-18T16:28:40;35.13;;;21.33;;
15022;SDS011;19850;49.576;10.880;2022-12-18T16:32:48;33.83;;;21.23;;
15022;SDS011;19850;49.576;10.880;2022-12-18T16:36:51;32.17;;;19.47;;
15022;SDS011;19850;49.576;10.880;2022-12-18T16:40:55;29.80;;;19.37;;
15022;SDS011;19850;49.576;10.880;2022-12-18T16:45:17;29.43;;;17.67;;
15022;SDS011;19850;49.576;10.880;2022-12-18T16:49:20;28.37;;;17.27;;
15022;SDS011;19850;49.576;10.880;2022-12-18T16:53:23;31.27;;;18.77;;
15022;SDS011;19850;49.576;10.880;2022-12-18T16:57:36;32.90;;;19.90;;
15022;SDS011;19850;49.576;10.880;2022-12-18T17:01:39;32.83;;;19.73;;
15022;SDS011;19850;49.576;10.880;2022-12-18T17:05:43;33.47;;;19.43;;
15022;SDS011;19850;49.576;10.880;2022-12-18T17:09:53;33.97;;;19.50;;
15022;SDS011;19850;49.576;10.880;2022-12-18T17:13:57;32.10;;;19.40;;
15022;SDS011;19850;49.576;10.880;2022-12-18T17:18:01;35.90;;;20.77;;
15022;SDS011;19850;49.576;10.880;2022-12-18T17:22:04;55.93;;;27.10;;
15022;SDS011;19850;49.576;10.880;2022-12-18T17:26:08;64.27;;;29.70;;
15022;SDS011;19850;49.576;10.880;2022-12-18T17:30:13;39.00;;;21.77;;
15022;SDS011;19850;49.576;10.880;2022-12-18T17:34:16;61.50;;;29.27;;
15022;SDS011;19850;49.576;10.880;2022-12-18T17:38:19;91.10;;;39.10;;
15022;SDS011;19850;49.576;10.880;2022-12-18T17:42:22;34.87;;;20.67;;
15022;SDS011;19850;49.576;10.880;2022-12-18T17:46:28;34.27;;;20.60;;
15022;SDS011;19850;49.576;10.880;2022-12-18T17:50:32;32.27;;;20.00;;
15022;SDS011;19850;49.576;10.880;2022-12-18T17:54:36;35.50;;;20.53;;
15022;SDS011;19850;49.576;10.880;2022-12-18T17:58:41;32.67;;;19.90;;
15022;SDS011;19850;49.576;10.880;2022-12-18T18:02:46;40.47;;;20.77;;
15022;SDS011;19850;49.576;10.880;2022-12-18T18:06:49;34.43;;;20.63;;
15022;SDS011;19850;49.576;10.880;2022-12-18T18:10:52;33.23;;;19.80;;
15022;SDS011;19850;49.576;10.880;2022-12-18T18:15:17;38.30;;;21.97;;
15022;SDS011;19850;49.576;10.880;2022-12-18T18:19:22;35.97;;;20.87;;
15022;SDS011;19850;49.576;10.880;2022-12-18T18:23:25;36.83;;;21.37;;
15022;SDS011;19850;49.576;10.880;2022-12-18T18:27:31;36.23;;;21.20;;
15022;SDS011;19850;49.576;10.880;2022-12-18T18:31:39;31.63;;;19.63;;
15022;SDS011;19850;49.576;10.880;2022-12-18T18:35:44;38.27;;;21.47;;
15022;SDS011;19850;49.576;10.880;2022-12-18T18:39:55;36.13;;;22.97;;
15022;SDS011;19850;49.576;10.880;2022-12-18T18:43:58;38.37;;;23.77;;
15022;SDS011;19850;49.576;10.880;2022-12-18T18:48:01;31.90;;;19.60;;
15022;SDS011;19850;49.576;10.880;2022-12-18T18:52:05;37.23;;;21.57;;
15022;SDS011;19850;49.576;10.880;2022-12-18T18:56:09;36.17;;;21.60;;
15022;SDS011;19850;49.576;10.880;2022-12-18T19:00:32;39.23;;;22.83;;
15022;SDS011;19850;49.576;10.880;2022-12-18T19:04:36;33.13;;;19.47;;
15022;SDS011;19850;49.576;10.880;2022-12-18T19:08:48;37.53;;;22.07;;
15022;SDS011;19850;49.576;10.880;2022-12-18T19:12:54;49.13;;;25.70;;
15022;SDS011;19850;49.576;10.880;2022-12-18T19:17:14;34.33;;;21.23;;
15022;SDS011;19850;49.576;10.880;2022-12-18T19:21:17;34.47;;;20.90;;
15022;SDS011;19850;49.576;10.880;2022-12-18T19:25:22;36.17;;;26.05;;
15022;SDS011;19850;49.576;10.880;2022-12-18T19:29:41;35.23;;;21.43;;
15022;SDS011;19850;49.576;10.880;2022-12-18T19:33:44;34.50;;;24.80;;
15022;SDS011;19850;49.576;10.880;2022-12-18T19:37:48;37.53;;;22.30;;
15022;SDS011;19850;49.576;10.880;2022-12-18T19:41:52;34.50;;;21.63;;
15022;SDS011;19850;49.576;10.880;2022-12-18T19:45:55;40.17;;;29.20;;
15022;SDS011;19850;49.576;10.880;2022-12-18T19:49:57;35.50;;;22.30;;
15022;SDS011;19850;49.576;10.880;2022-12-18T19:54:00;54.33;;;38.30;;
15022;SDS011;19850;49.576;10.880;2022-12-18T19:58:05;32.00;;;20.57;;
15022;SDS011;19850;49.576;10.880;2022-12-18T20:02:09;30.10;;;19.33;;
15022;SDS011;19850;49.576;10.880;2022-12-18T20:06:14;36.67;;;22.37;;
15022;SDS011;19850;49.576;10.880;2022-12-18T20:10:24;32.23;;;19.87;;
15022;SDS011;19850;49.576;10.880;2022-12-18T20:14:29;31.47;;;20.40;;
15022;SDS011;19850;49.576;10.880;2022-12-18T20:18:31;32.67;;;21.13;;
15022;SDS011;19850;49.576;10.880;2022-12-18T20:22:35;34.83;;;21.63;;
15022;SDS011;19850;49.576;10.880;2022-12-18T20:26:37;31.07;;;19.27;;
15022;SDS011;19850;49.576;10.880;2022-12-18T20:30:42;33.03;;;19.23;;
15022;SDS011;19850;49.576;10.880;2022-12-18T20:34:45;32.10;;;19.80;;
15022;SDS011;19850;49.576;10.880;2022-12-18T20:38:48;30.93;;;19.23;;
15022;SDS011;19850;49.576;10.880;2022-12-18T20:43:00;33.80;;;20.27;;
15022;SDS011;19850;49.576;10.880;2022-12-18T20:47:05;31.47;;;19.27;;
15022;SDS011;19850;49.576;10.880;2022-12-18T20:51:09;31.10;;;19.20;;
15022;SDS011;19850;49.576;10.880;2022-12-18T20:55:13;31.23;;;19.03;;
15022;SDS011;19850;49.576;10.880;2022-12-18T20:59:19;31.07;;;19.57;;
15022;SDS011;19850;49.576;10.880;2022-12-18T21:03:27;28.67;;;18.50;;
15022;SDS011;19850;49.576;10.880;2022-12-18T21:07:30;29.83;;;19.53;;
15022;SDS011;19850;49.576;10.880;2022-12-18T21:11:33;26.63;;;17.70;;
15022;SDS011;19850;49.576;10.880;2022-12-18T21:15:54;28.97;;;18.40;;
15022;SDS011;19850;49.576;10.880;2022-12-18T21:19:58;30.37;;;18.93;;
15022;SDS011;19850;49.576;10.880;2022-12-18T21:24:02;28.50;;;17.97;;
15022;SDS011;19850;49.576;10.880;2022-12-18T21:28:05;31.47;;;18.13;;
15022;SDS011;19850;49.576;10.880;2022-12-18T21:32:08;26.63;;;17.00;;
15022;SDS011;19850;49.576;10.880;2022-12-18T21:36:12;27.05;;;19.23;;
15022;SDS011;19850;49.576;10.880;2022-12-18T21:40:15;25.33;;;17.03;;
15022;SDS011;19850;49.576;10.880;2022-12-18T21:44:18;26.37;;;16.70;;
15022;SDS011;19850;49.576;10.880;2022-12-18T21:48:21;25.57;;;16.47;;
15022;SDS011;19850;49.576;10.880;2022-12-18T21:52:25;26.47;;;21.07;;
15022;SDS011;19850;49.576;10.880;2022-12-18T21:56:42;27.67;;;18.57;;
15022;SDS011;19850;49.576;10.880;2022-12-18T22:00:46;24.13;;;16.33;;
15022;SDS011;19850;49.576;10.880;2022-12-18T22:04:49;25.07;;;16.50;;
15022;SDS011;19850;49.576;10.880;2022-12-18T22:08:57;25.70;;;16.90;;
15022;SDS011;19850;49.576;10.880;2022-12-18T22:13:00;24.50;;;16.53;;
15022;SDS011;19850;49.576;10.880;2022-12-18T22:17:04;28.00;;;23.05;;
15022;SDS011;19850;49.576;10.880;2022-12-18T22:21:19;26.70;;;18.33;;
15022;SDS011;19850;49.576;10.880;2022-12-18T22:25:31;25.97;;;17.20;;
15022;SDS011;19850;49.576;10.880;2022-12-18T22:29:35;26.70;;;17.57;;
15022;SDS011;19850;49.576;10.880;2022-12-18T22:33:55;26.73;;;17.67;;
15022;SDS011;19850;49.576;10.880;2022-12-18T22:37:58;23.97;;;17.03;;
15022;SDS011;19850;49.576;10.880;2022-12-18T22:42:03;26.00;;;17.07;;
15022;SDS011;19850;49.576;10.880;2022-12-18T22:46:07;26.07;;;17.23;;
15022;SDS011;19850;49.576;10.880;2022-12-18T22:50:13;26.30;;;16.90;;
15022;SDS011;19850;49.576;10.880;2022-12-18T22:54:16;27.23;;;17.50;;
15022;SDS011;19850;49.576;10.880;2022-12-18T22:58:20;29.83;;;18.20;;
15022;SDS011;19850;49.576;10.880;2022-12-18T23:02:22;29.93;;;18.20;;
15022;SDS011;19850;49.576;10.880;2022-12-18T23:06:26;27.17;;;17.17;;
15022;SDS011;19850;49.576;10.880;2022-12-18T23:10:29;27.87;;;18.10;;
15022;SDS011;19850;49.576;10.880;2022-12-18T23:14:33;26.53;;;17.37;;
15022;SDS011;19850;49.576;10.880;2022-12-18T23:18:36;27.27;;;17.10;;
15022;SDS011;19850;49.576;10.880;2022-12-18T23:22:39;27.93;;;18.57;;
15022;SDS011;19850;49.576;10.880;2022-12-18T23:26:42;26.13;;;17.03;;
15022;SDS011;19850;49.576;10.880;2022-12-18T23:30:46;26.07;;;17.17;;
15022;SDS011;19850;49.576;10.880;2022-12-18T23:34:49;28.60;;;18.77;;
15022;SDS011;19850;49.576;10.880;2022-12-18T23:38:52;26.37;;;16.93;;
15022;SDS011;19850;49.576;10.880;2022-12-18T23:42:56;25.93;;;17.47;;
15022;SDS011;19850;49.576;10.880;2022-12-18T23:47:01;27.23;;;18.73;;
15022;SDS011;19850;49.576;10.880;2022-12-18T23:51:04;28.57;;;17.80;;